Time;durP1;ratioP1;P1;durP2;ratioP2;P2;SDS_P1;SDS_P2;PMS_P1;PMS_P2;Temp;Humidity;BMP_temperature;BMP_pressure;BME280_temperature;BME280_humidity;BME280_pressure;Samples;Min_cycle;Max_cycle;Signal;HPM_P1;HPM_P2
2021/07/27 00:07:17;;;;;;;7.20;5.20;;;26.30;42.30;;;;;;21205477;28;20043;-71
2021/07/27 00:17:18;;;;;;;9.27;6.10;;;26.10;42.70;;;;;;21174908;28;20052;-73
2021/07/27 00:27:20;;;;;;;9.13;4.70;;;26.10;42.20;;;;;;21174845;28;20048;-68
2021/07/27 00:37:28;;;;;;;7.57;4.82;;;26.20;40.70;;;;;;21155463;28;20044;-70
2021/07/27 00:47:30;;;;;;;10.02;3.97;;;26.20;40.60;;;;;;21170146;28;20051;-72
2021/07/27 00:57:32;;;;;;;5.82;3.88;;;26.10;40.70;;;;;;21150847;28;20079;-71
2021/07/27 01:07:33;;;;;;;9.23;3.80;;;25.90;41.20;;;;;;21168735;28;20066;-61
2021/07/27 01:17:38;;;;;;;6.93;3.83;;;25.80;42.00;;;;;;21168412;28;20415;-61
2021/07/27 01:48:26;;;;;;;5.35;3.38;;;25.60;45.90;;;;;;21166781;28;20043;-65
2021/07/27 01:58:33;;;;;;;4.15;2.83;;;25.50;47.00;;;;;;21164232;28;20051;-62
2021/07/27 02:08:40;;;;;;;4.90;3.05;;;25.40;47.60;;;;;;21167133;28;20043;-72
2021/07/27 02:18:51;;;;;;;5.83;3.30;;;25.40;48.30;;;;;;21165388;28;20464;-63
2021/07/27 02:29:14;;;;;;;5.83;3.50;;;25.20;49.20;;;;;;21164353;28;20056;-72
2021/07/27 02:39:36;;;;;;;6.55;3.30;;;25.10;50.00;;;;;;21163357;28;20047;-62
2021/07/27 02:49:57;;;;;;;4.43;3.20;;;25.00;50.70;;;;;;21164577;28;20488;-64
2021/07/27 03:00:16;;;;;;;4.75;3.30;;;24.80;51.40;;;;;;21147861;28;20048;-68
2021/07/27 03:10:27;;;;;;;6.30;3.05;;;24.70;51.80;;;;;;21162616;28;20048;-65
2021/07/27 03:20:36;;;;;;;7.65;3.33;;;24.70;52.10;;;;;;21162165;28;20043;-64
2021/07/27 03:30:41;;;;;;;6.25;3.28;;;24.60;52.40;;;;;;21176665;28;20054;-71
2021/07/27 03:40:51;;;;;;;4.50;3.38;;;24.50;52.80;;;;;;21175809;28;20052;-71
2021/07/27 03:51:07;;;;;;;4.93;3.83;;;24.20;53.40;;;;;;21175201;28;20134;-70
2021/07/27 04:01:28;;;;;;;13.85;5.15;;;24.20;53.70;;;;;;21189475;28;20081;-69
2021/07/27 04:11:49;;;;;;;7.63;3.88;;;24.20;53.80;;;;;;21176376;28;20048;-71
2021/07/27 04:22:03;;;;;;;4.78;3.53;;;24.00;54.20;;;;;;21201451;28;20523;-62
2021/07/27 04:32:12;;;;;;;4.97;3.80;;;23.90;54.60;;;;;;21175492;28;20058;-72
2021/07/27 04:42:22;;;;;;;6.75;3.75;;;23.90;54.60;;;;;;21172268;28;20122;-63
2021/07/27 04:52:37;;;;;;;5.13;3.33;;;23.80;54.80;;;;;;21170974;28;20056;-72
2021/07/27 05:02:45;;;;;;;6.18;4.05;;;23.80;54.60;;;;;;21153295;28;20112;-66
2021/07/27 05:13:09;;;;;;;5.93;4.10;;;23.90;54.50;;;;;;21169661;28;20044;-66
2021/07/27 05:23:30;;;;;;;9.43;4.03;;;23.70;55.20;;;;;;21168438;28;20054;-69
2021/07/27 05:33:52;;;;;;;6.40;3.63;;;23.60;55.70;;;;;;21166966;28;20052;-71
2021/07/27 05:44:13;;;;;;;6.57;3.63;;;23.60;55.80;;;;;;21165170;28;20048;-71
2021/07/27 05:54:31;;;;;;;5.75;3.45;;;23.60;55.90;;;;;;21165202;28;20069;-70
2021/07/27 06:04:46;;;;;;;9.82;4.65;;;23.50;56.10;;;;;;21165032;28;20077;-68
2021/07/27 06:14:53;;;;;;;6.90;3.30;;;23.50;55.90;;;;;;21163549;28;20130;-70
2021/07/27 06:24:58;;;;;;;5.95;3.60;;;23.60;55.60;;;;;;21163323;28;20055;-70
2021/07/27 06:35:02;;;;;;;10.32;3.78;;;23.70;55.30;;;;;;21162706;28;20507;-66
2021/07/27 06:45:09;;;;;;;7.10;3.90;;;23.70;55.40;;;;;;21162115;28;20039;-72
2021/07/27 06:55:13;;;;;;;10.23;3.83;;;23.90;55.10;;;;;;21165178;28;20059;-67
2021/07/27 07:05:16;;;;;;;7.40;4.47;;;24.20;54.10;;;;;;21190682;28;20127;-69
2021/07/27 07:15:20;;;;;;;5.97;3.45;;;24.70;52.80;;;;;;21187614;28;20087;-69
2021/07/27 07:25:24;;;;;;;9.82;3.95;;;25.10;51.70;;;;;;21213885;28;20054;-70
2021/07/27 07:35:27;;;;;;;5.63;3.25;;;25.60;50.30;;;;;;21178672;28;20052;-71
2021/07/27 07:45:31;;;;;;;6.70;3.70;;;;;;;;;;21177682;28;20051;-67
2021/07/27 07:55:34;;;;;;;6.75;4.38;;;;;;;;;;21175047;28;20051;-68
2021/07/27 08:05:37;;;;;;;5.63;3.45;;;;;;;;;;21173343;28;20068;-67
2021/07/27 08:15:40;;;;;;;5.53;3.63;;;28.90;43.10;;;;;;21171891;28;20126;-70
2021/07/27 08:25:44;;;;;;;7.30;3.63;;;28.60;43.60;;;;;;21170937;28;20048;-71
2021/07/27 08:35:47;;;;;;;6.50;3.95;;;27.80;45.00;;;;;;21171122;28;20119;-72
2021/07/27 08:45:51;;;;;;;5.43;3.97;;;28.20;44.20;;;;;;21151539;28;20062;-70
2021/07/27 08:55:59;;;;;;;7.60;3.95;;;28.40;44.30;;;;;;21168911;28;20047;-74
2021/07/27 09:06:05;;;;;;;4.50;3.88;;;28.60;43.50;;;;;;21170181;28;20047;-72
2021/07/27 09:16:16;;;;;;;5.50;3.75;;;28.70;42.90;;;;;;21169902;28;20052;-71
2021/07/27 09:26:23;;;;;;;9.40;3.85;;;28.90;42.10;;;;;;21167996;28;20051;-71
2021/07/27 09:36:28;;;;;;;6.28;3.97;;;29.30;41.00;;;;;;21168435;28;20055;-71
2021/07/27 09:46:33;;;;;;;7.72;4.47;;;29.50;39.70;;;;;;21167051;28;20058;-71
2021/07/27 09:56:37;;;;;;;6.88;4.05;;;29.40;40.10;;;;;;21165847;28;20083;-71
2021/07/27 10:06:49;;;;;;;9.57;3.90;;;29.60;39.90;;;;;;21164667;28;20053;-71
2021/07/27 10:17:01;;;;;;;6.10;3.75;;;29.70;39.30;;;;;;21163918;28;20476;-69
2021/07/27 10:27:24;;;;;;;6.13;4.22;;;29.80;39.50;;;;;;21162748;28;20052;-71
2021/07/27 10:37:37;;;;;;;4.70;3.70;;;29.90;39.30;;;;;;21162333;28;20131;-71
2021/07/27 10:47:40;;;;;;;6.03;3.95;;;30.00;38.20;;;;;;21166065;28;20048;-72
2021/07/27 10:57:50;;;;;;;5.97;4.43;;;30.10;38.00;;;;;;21166781;28;20044;-70
2021/07/27 11:07:53;;;;;;;6.68;3.75;;;30.50;36.60;;;;;;21161946;28;20044;-71
2021/07/27 11:18:00;;;;;;;7.65;3.75;;;30.70;35.90;;;;;;21161257;28;20047;-69
2021/07/27 11:28:10;;;;;;;5.47;4.88;;;30.80;35.90;;;;;;21160620;28;20059;-71
2021/07/27 11:38:29;;;;;;;4.78;3.08;;;31.10;35.10;;;;;;21142308;28;20211;-69
2021/07/27 11:48:34;;;;;;;4.80;3.65;;;31.10;34.30;;;;;;21171262;28;20050;-70
2021/07/27 11:58:36;;;;;;;6.40;3.50;;;31.40;33.60;;;;;;21174559;28;20055;-69
2021/07/27 12:08:38;;;;;;;5.35;3.78;;;31.60;32.90;;;;;;21173896;28;20040;-69
2021/07/27 12:18:40;;;;;;;4.57;3.45;;;31.70;32.50;;;;;;21174138;28;20089;-70
2021/07/27 12:28:42;;;;;;;3.50;2.78;;;31.60;33.10;;;;;;21173394;28;20487;-73
2021/07/27 12:38:44;;;;;;;7.93;3.15;;;31.80;31.70;;;;;;21154379;28;20435;-73
2021/07/27 12:48:47;;;;;;;6.35;4.15;;;32.20;30.90;;;;;;21154813;28;20067;-72
2021/07/27 12:58:50;;;;;;;4.97;3.53;;;32.40;30.10;;;;;;21180795;28;20051;-71
2021/07/27 13:08:52;;;;;;;4.47;3.10;;;32.50;30.40;;;;;;21221525;28;20044;-69
2021/07/27 13:18:56;;;;;;;5.60;3.58;;;32.70;29.50;;;;;;21242484;28;20047;-70
2021/07/27 13:28:58;;;;;;;4.32;2.72;;;32.80;29.10;;;;;;21228349;28;20054;-73
2021/07/27 13:39:05;;;;;;;5.07;2.97;;;33.10;28.60;;;;;;21162028;28;20134;-71
2021/07/27 13:49:07;;;;;;;4.95;4.45;;;33.10;28.60;;;;;;21172338;28;20540;-67
2021/07/27 13:59:10;;;;;;;3.38;3.08;;;33.20;27.70;;;;;;21167080;28;20100;-71
2021/07/27 14:09:13;;;;;;;3.63;2.63;;;33.40;26.80;;;;;;21166842;28;20047;-67
2021/07/27 14:19:15;;;;;;;4.32;2.92;;;33.50;25.50;;;;;;21166459;28;20051;-70
2021/07/27 14:29:18;;;;;;;2.88;2.33;;;33.50;25.20;;;;;;21165033;28;20109;-68
2021/07/27 14:39:20;;;;;;;3.25;2.58;;;33.60;24.50;;;;;;21166458;28;20055;-72
2021/07/27 14:49:24;;;;;;;3.60;2.70;;;33.50;24.00;;;;;;21167373;28;20054;-72
2021/07/27 14:59:27;;;;;;;6.03;3.80;;;33.70;24.00;;;;;;21167486;28;20456;-71
2021/07/27 15:09:30;;;;;;;3.75;2.83;;;33.60;24.90;;;;;;21167002;28;20046;-72
2021/07/27 15:19:32;;;;;;;5.35;3.58;;;33.80;25.40;;;;;;21174336;28;20134;-72
2021/07/27 15:29:34;;;;;;;5.80;2.83;;;33.80;25.00;;;;;;21201209;28;20164;-72
2021/07/27 15:39:37;;;;;;;4.43;3.13;;;33.90;25.20;;;;;;21191795;28;20105;-72
2021/07/27 15:49:39;;;;;;;5.20;3.55;;;33.90;25.10;;;;;;21189539;28;20048;-69
2021/07/27 15:59:41;;;;;;;6.80;6.07;;;34.00;24.40;;;;;;21181289;28;20056;-72
2021/07/27 16:09:45;;;;;;;4.00;2.83;;;33.90;24.20;;;;;;21174785;28;20039;-70
2021/07/27 16:19:47;;;;;;;4.05;3.63;;;33.90;25.00;;;;;;21174823;28;20174;-70
2021/07/27 16:29:51;;;;;;;3.70;2.90;;;33.90;25.20;;;;;;21183405;28;20090;-66
2021/07/27 16:39:53;;;;;;;3.65;3.13;;;33.90;24.80;;;;;;21186804;28;20044;-70
2021/07/27 16:49:54;;;;;;;5.13;3.40;;;33.80;24.30;;;;;;21171541;28;20153;-70
2021/07/27 16:59:57;;;;;;;3.72;3.10;;;33.80;24.50;;;;;;21171726;28;20130;-72
2021/07/27 17:09:59;;;;;;;4.32;3.65;;;33.80;24.20;;;;;;21150467;28;20052;-71
2021/07/27 17:20:01;;;;;;;3.92;3.47;;;33.70;24.00;;;;;;21168430;28;20113;-70
2021/07/27 17:30:08;;;;;;;7.55;4.00;;;33.60;24.10;;;;;;21169427;28;20069;-70
2021/07/27 17:40:10;;;;;;;5.13;3.60;;;33.60;24.30;;;;;;21166289;28;20051;-68
2021/07/27 17:50:12;;;;;;;4.43;3.50;;;33.50;25.10;;;;;;21165128;28;20051;-70
2021/07/27 18:00:13;;;;;;;4.25;3.85;;;33.40;24.20;;;;;;21163951;28;20108;-70
2021/07/27 18:10:17;;;;;;;5.32;3.72;;;33.30;25.00;;;;;;21163632;28;20117;-70
2021/07/27 18:20:18;;;;;;;5.22;4.30;;;33.10;26.10;;;;;;21164583;28;20141;-69
2021/07/27 18:30:21;;;;;;;4.38;3.97;;;33.00;26.60;;;;;;21163387;28;20431;-65
2021/07/27 18:40:23;;;;;;;5.28;4.35;;;33.00;26.60;;;;;;21163191;28;20130;-68
2021/07/27 18:50:24;;;;;;;6.97;5.35;;;32.70;26.00;;;;;;21162410;28;20416;-70
2021/07/27 19:00:28;;;;;;;7.00;4.03;;;32.60;26.10;;;;;;21181183;28;20526;-70
2021/07/27 19:10:30;;;;;;;7.60;6.35;;;32.40;26.70;;;;;;21179075;28;20047;-67
2021/07/27 19:20:31;;;;;;;8.90;5.78;;;32.20;27.00;;;;;;21177604;28;20058;-67
2021/07/27 19:30:33;;;;;;;5.38;4.28;;;32.00;27.60;;;;;;21176038;28;20055;-68
2021/07/27 19:40:38;;;;;;;5.10;4.28;;;31.90;28.10;;;;;;21176723;28;20051;-68
2021/07/27 19:50:40;;;;;;;6.47;4.72;;;31.70;28.40;;;;;;21175056;28;20456;-69
2021/07/27 20:00:44;;;;;;;7.72;5.95;;;31.60;28.50;;;;;;21173109;28;20101;-68
2021/07/27 20:10:46;;;;;;;6.90;6.20;;;31.40;28.90;;;;;;21170893;28;20093;-69
2021/07/27 20:20:47;;;;;;;7.47;5.53;;;31.20;29.30;;;;;;21170852;28;20055;-69
2021/07/27 20:30:49;;;;;;;5.38;4.65;;;31.10;29.50;;;;;;21170748;28;20040;-72
2021/07/27 20:40:51;;;;;;;7.65;4.72;;;30.90;29.70;;;;;;21170269;28;20134;-66
2021/07/27 20:50:53;;;;;;;12.88;5.55;;;30.80;29.90;;;;;;21168648;28;20088;-67
2021/07/27 21:00:55;;;;;;;5.70;5.10;;;30.60;30.30;;;;;;21167519;28;20138;-67
2021/07/27 21:10:58;;;;;;;6.18;5.50;;;30.50;30.20;;;;;;21170659;28;20051;-70
2021/07/27 21:21:03;;;;;;;6.10;5.03;;;30.30;30.30;;;;;;21171616;28;20120;-68
2021/07/27 21:31:06;;;;;;;7.57;4.80;;;30.20;30.40;;;;;;21169684;28;20048;-66
2021/07/27 21:41:07;;;;;;;7.65;4.25;;;30.10;30.40;;;;;;21169398;28;20047;-69
2021/07/27 21:51:09;;;;;;;7.30;5.57;;;30.00;30.80;;;;;;21176185;28;20229;-70
2021/07/27 22:01:11;;;;;;;6.95;4.93;;;29.90;31.10;;;;;;21170252;28;20055;-69
2021/07/27 22:11:13;;;;;;;5.65;4.95;;;29.70;31.30;;;;;;21171101;28;20051;-67
2021/07/27 22:21:17;;;;;;;4.65;3.97;;;29.60;30.70;;;;;;21169359;28;20083;-68
2021/07/27 22:31:19;;;;;;;5.88;4.35;;;29.50;30.20;;;;;;21170385;28;20055;-67
2021/07/27 22:41:24;;;;;;;9.27;4.80;;;29.30;29.70;;;;;;21170264;28;20047;-70
2021/07/27 22:51:25;;;;;;;6.55;4.10;;;29.10;29.40;;;;;;21170207;28;20476;-69
2021/07/27 23:01:27;;;;;;;4.97;3.75;;;28.90;29.80;;;;;;21171168;28;20490;-70
2021/07/27 23:11:29;;;;;;;5.78;4.05;;;28.70;29.60;;;;;;21168995;28;20043;-69
2021/07/27 23:21:33;;;;;;;5.80;4.07;;;28.60;29.80;;;;;;21169237;27;20059;-69
2021/07/27 23:31:37;;;;;;;4.68;3.88;;;28.40;29.80;;;;;;21168456;28;20519;-69
2021/07/27 23:41:38;;;;;;;5.38;4.20;;;28.30;29.30;;;;;;21177012;28;20123;-69
2021/07/27 23:51:40;;;;;;;6.03;4.68;;;28.20;29.40;;;;;;21186521;28;20055;-70
